^^
Saratoga-Weather Station Historical Data
 
Daily Summary for June 17, 2019 Units:  Metric    English   Both
Daily Weekly Monthly Yearly Custom
  Current: High: Low: Average:
Temperature: 13.1 °C 13.1 °C 8.3 °C 10.1 °C
Dew Point: 11.8 °C 11.8 °C 7.1 °C 8.9 °C
Humidity: 92% 95% 88% 92%
Wind Speed: 7.4km/h 7.4km/h 0.0km/h 0.5km/h
Wind Gust: 7.1km/h 7.1km/h - -
WindWest - - West
Pressure: 1020.0 hPa 1020.0 hPa 1019.0 hPa -
Precipitation: 0.0 mm      
Historical Graphs
 
 
Tabular Data for June 17, 2019
Time Temperature Dew Point Pressure Wind Wind Speed Wind Gust Humidity Rainfall Rate (Hourly) solar
00:04 12.4 °C 10.4 °C 1019.1 hPa Calm     88% 0.0 mm 0.00 W/m2
00:09 12.3 °C 10.5 °C 1019.1 hPa Calm     89% 0.0 mm 0.00 W/m2
00:14 12.2 °C 10.4 °C 1019.2 hPa Calm     89% 0.0 mm 0.00 W/m2
00:19 12.1 °C 10.3 °C 1019.1 hPa Calm     89% 0.0 mm 0.00 W/m2
00:24 12.1 °C 10.3 °C 1019.1 hPa Calm     89% 0.0 mm 0.00 W/m2
00:29 11.9 °C 10.2 °C 1019.1 hPa Calm     89% 0.0 mm 0.00 W/m2
00:34 11.9 °C 10.1 °C 1019.1 hPa Calm     89% 0.0 mm 0.00 W/m2
00:39 11.8 °C 10.1 °C 1019.1 hPa Calm     89% 0.0 mm 0.00 W/m2
00:44 11.7 °C 9.9 °C 1019.1 hPa Calm     89% 0.0 mm 0.00 W/m2
00:49 11.6 °C 9.8 °C 1019.0 hPa Calm     89% 0.0 mm 0.00 W/m2
00:54 11.4 °C 9.7 °C 1019.1 hPa Calm     89% 0.0 mm 0.00 W/m2
00:59 11.3 °C 9.7 °C 1019.1 hPa Calm     90% 0.0 mm 0.00 W/m2
01:04 11.2 °C 9.6 °C 1019.2 hPa Calm     90% 0.0 mm 0.00 W/m2
01:09 11.1 °C 9.6 °C 1019.2 hPa Calm     90% 0.0 mm 0.00 W/m2
01:14 11.1 °C 9.5 °C 1019.2 hPa Calm     90% 0.0 mm 0.00 W/m2
01:19 10.9 °C 9.4 °C 1019.2 hPa Calm     90% 0.0 mm 0.00 W/m2
01:24 10.9 °C 9.3 °C 1019.3 hPa Calm     90% 0.0 mm 0.00 W/m2
01:29 10.8 °C 9.2 °C 1019.2 hPa Calm     90% 0.0 mm 0.00 W/m2
01:34 10.7 °C 9.1 °C 1019.3 hPa Calm     90% 0.0 mm 0.00 W/m2
01:39 10.6 °C 9.0 °C 1019.3 hPa Calm     90% 0.0 mm 0.00 W/m2
01:44 10.4 °C 8.9 °C 1019.4 hPa West 1.9 km/h 0.3 km/h 90% 0.0 mm 0.00 W/m2
01:49 10.3 °C 8.8 °C 1019.3 hPa Calm     90% 0.0 mm 0.00 W/m2
01:54 10.3 °C 8.9 °C 1019.3 hPa Calm     91% 0.0 mm 0.00 W/m2
01:59 10.3 °C 8.9 °C 1019.4 hPa Calm     91% 0.0 mm 0.00 W/m2
02:04 10.2 °C 8.8 °C 1019.4 hPa Calm     91% 0.0 mm 0.00 W/m2
02:09 10.0 °C 8.6 °C 1019.3 hPa Calm     91% 0.0 mm 0.00 W/m2
02:14 9.8 °C 8.3 °C 1019.3 hPa Calm     90% 0.0 mm 0.00 W/m2
02:19 9.8 °C 8.4 °C 1019.3 hPa Calm     91% 0.0 mm 0.00 W/m2
02:24 9.7 °C 8.3 °C 1019.3 hPa Calm     91% 0.0 mm 0.00 W/m2
02:29 9.8 °C 8.6 °C 1019.3 hPa Calm     92% 0.0 mm 0.00 W/m2
02:34 9.8 °C 8.6 °C 1019.3 hPa Calm     92% 0.0 mm 0.00 W/m2
02:39 9.7 °C 8.4 °C 1019.4 hPa Calm     92% 0.0 mm 0.00 W/m2
02:44 9.6 °C 8.4 °C 1019.3 hPa Calm     92% 0.0 mm 0.00 W/m2
02:49 9.6 °C 8.4 °C 1019.2 hPa Calm     92% 0.0 mm 0.00 W/m2
02:54 9.6 °C 8.3 °C 1019.3 hPa Calm     92% 0.0 mm 0.00 W/m2
02:59 9.5 °C 8.3 °C 1019.2 hPa Calm     92% 0.0 mm 0.00 W/m2
03:04 9.5 °C 8.3 °C 1019.2 hPa Calm     92% 0.0 mm 0.00 W/m2
03:09 9.4 °C 8.2 °C 1019.2 hPa Calm     92% 0.0 mm 0.00 W/m2
03:14 9.4 °C 8.2 °C 1019.2 hPa Calm     92% 0.0 mm 0.00 W/m2
03:19 9.4 °C 8.2 °C 1019.3 hPa Calm     92% 0.0 mm 0.00 W/m2
03:24 9.3 °C 8.1 °C 1019.3 hPa Calm     92% 0.0 mm 0.00 W/m2
03:29 9.3 °C 8.1 °C 1019.3 hPa Calm     92% 0.0 mm 0.00 W/m2
03:34 9.2 °C 7.9 °C 1019.4 hPa Calm     92% 0.0 mm 0.00 W/m2
03:39 9.1 °C 7.9 °C 1019.4 hPa Calm     92% 0.0 mm 0.00 W/m2
03:44 9.1 °C 7.9 °C 1019.3 hPa Calm     92% 0.0 mm 0.00 W/m2
03:49 9.1 °C 7.8 °C 1019.4 hPa Calm     92% 0.0 mm 0.00 W/m2
03:54 9.0 °C 7.8 °C 1019.4 hPa Calm     92% 0.0 mm 0.00 W/m2
03:59 8.8 °C 7.6 °C 1019.5 hPa Calm     92% 0.0 mm 0.00 W/m2
04:04 8.8 °C 7.6 °C 1019.4 hPa Calm     92% 0.0 mm 0.00 W/m2
04:09 8.7 °C 7.5 °C 1019.4 hPa Calm     92% 0.0 mm 0.00 W/m2
04:14 8.7 °C 7.4 °C 1019.4 hPa Calm     92% 0.0 mm 0.00 W/m2
04:19 8.4 °C 7.2 °C 1019.6 hPa Calm     92% 0.0 mm 5.00 W/m2
04:24 8.4 °C 7.2 °C 1019.6 hPa Calm     92% 0.0 mm 5.00 W/m2
04:29 8.3 °C 7.1 °C 1019.6 hPa Calm     92% 0.0 mm 7.00 W/m2
04:34 8.4 °C 7.3 °C 1019.6 hPa Calm     93% 0.0 mm 9.00 W/m2
04:39 8.4 °C 7.4 °C 1019.6 hPa Calm     93% 0.0 mm 9.00 W/m2
04:44 8.4 °C 7.4 °C 1019.7 hPa Calm     93% 0.0 mm 12.00 W/m2
04:49 8.4 °C 7.4 °C 1019.7 hPa Calm     93% 0.0 mm 14.00 W/m2
04:54 8.4 °C 7.4 °C 1019.9 hPa Calm     93% 0.0 mm 21.00 W/m2
04:59 8.4 °C 7.4 °C 1019.9 hPa Calm     93% 0.0 mm 21.00 W/m2
05:04 8.4 °C 7.4 °C 1019.8 hPa Calm     93% 0.0 mm 25.00 W/m2
05:09 8.5 °C 7.4 °C 1019.8 hPa Calm     93% 0.0 mm 25.00 W/m2
05:14 8.6 °C 7.5 °C 1019.8 hPa Calm     93% 0.0 mm 32.00 W/m2
05:19 8.6 °C 7.6 °C 1019.8 hPa Calm     93% 0.0 mm 37.00 W/m2
05:24 8.6 °C 7.6 °C 1019.8 hPa Calm     93% 0.0 mm 37.00 W/m2
05:29 8.7 °C 7.8 °C 1019.8 hPa Calm     94% 0.0 mm 44.00 W/m2
05:34 8.7 °C 7.8 °C 1019.9 hPa Calm     94% 0.0 mm 63.00 W/m2
05:39 8.8 °C 7.9 °C 1019.9 hPa Calm     94% 0.0 mm 69.00 W/m2
05:44 8.9 °C 8.0 °C 1019.9 hPa Calm     94% 0.0 mm 72.00 W/m2
05:49 9.0 °C 8.1 °C 1019.9 hPa Calm     94% 0.0 mm 100.00 W/m2
05:54 9.3 °C 8.6 °C 1019.8 hPa Calm     95% 0.0 mm 107.00 W/m2
05:59 9.4 °C 8.5 °C 1019.8 hPa Calm     94% 0.0 mm 102.00 W/m2
06:04 9.6 °C 8.7 °C 1019.8 hPa Calm     94% 0.0 mm 130.00 W/m2
06:09 9.8 °C 9.0 °C 1019.8 hPa Calm     95% 0.0 mm 148.00 W/m2
06:14 10.0 °C 9.2 °C 1019.9 hPa Calm     95% 0.0 mm 163.00 W/m2
06:19 10.3 °C 9.6 °C 1019.9 hPa Calm     95% 0.0 mm 44.00 W/m2
06:24 10.4 °C 9.5 °C 1020.0 hPa Calm     94% 0.0 mm 139.00 W/m2
06:29 10.6 °C 9.7 °C 1020.0 hPa Calm     94% 0.0 mm 197.00 W/m2
06:34 10.7 °C 9.8 °C 1020.0 hPa Calm     94% 0.0 mm 167.00 W/m2
06:39 10.9 °C 10.0 °C 1019.9 hPa Calm     94% 0.0 mm 209.00 W/m2
06:44 11.2 °C 10.2 °C 1019.9 hPa Calm     94% 0.0 mm 220.00 W/m2
06:49 11.4 °C 10.4 °C 1019.9 hPa Calm     94% 0.0 mm 223.00 W/m2
06:54 11.7 °C 10.7 °C 1019.9 hPa West 1.6 km/h 0.5 km/h 94% 0.0 mm 197.00 W/m2
06:59 11.9 °C 11.0 °C 1019.9 hPa West 5.6 km/h 2.4 km/h 94% 0.0 mm 209.00 W/m2
07:04 12.1 °C 11.2 °C 1020.0 hPa West 3.7 km/h 2.1 km/h 94% 0.0 mm 239.00 W/m2
07:09 12.3 °C 11.4 °C 1019.9 hPa West 3.7 km/h 1.6 km/h 94% 0.0 mm 221.00 W/m2
07:14 12.4 °C 11.3 °C 1019.9 hPa WSW 5.6 km/h 2.7 km/h 93% 0.0 mm 91.00 W/m2
07:19 12.6 °C 11.5 °C 1019.9 hPa West 5.6 km/h 1.8 km/h 93% 0.0 mm 81.00 W/m2
07:24 12.8 °C 11.7 °C 1019.9 hPa WSW 5.6 km/h 4.0 km/h 93% 0.0 mm 125.00 W/m2
07:29 13.1 °C 11.8 °C 1020.0 hPa West 7.4 km/h 7.1 km/h 92% 0.0 mm 338.00 W/m2
Rianhome, Gråbo, Sweden
Compliments of Weather Underground - 2 mb